sensor_id;sensor_type;location;lat;lon;timestamp;P1;durP1;ratioP1;P2;durP2;ratioP2
18084;SDS011;9169;44.492;11.372;2023-06-10T00:01:27;48.90;;;13.07;;
18084;SDS011;9169;44.492;11.372;2023-06-10T00:03:56;49.27;;;12.20;;
18084;SDS011;9169;44.492;11.372;2023-06-10T00:06:25;52.80;;;13.00;;
18084;SDS011;9169;44.492;11.372;2023-06-10T00:08:55;50.43;;;12.57;;
18084;SDS011;9169;44.492;11.372;2023-06-10T00:11:25;45.17;;;10.70;;
18084;SDS011;9169;44.492;11.372;2023-06-10T00:13:53;47.10;;;10.70;;
18084;SDS011;9169;44.492;11.372;2023-06-10T00:16:22;47.60;;;11.97;;
18084;SDS011;9169;44.492;11.372;2023-06-10T00:18:50;49.17;;;11.90;;
18084;SDS011;9169;44.492;11.372;2023-06-10T00:21:22;50.47;;;13.10;;
18084;SDS011;9169;44.492;11.372;2023-06-10T00:23:52;48.27;;;11.80;;
18084;SDS011;9169;44.492;11.372;2023-06-10T00:26:22;52.50;;;12.93;;
18084;SDS011;9169;44.492;11.372;2023-06-10T00:28:52;54.23;;;13.37;;
18084;SDS011;9169;44.492;11.372;2023-06-10T00:31:21;53.57;;;13.57;;
18084;SDS011;9169;44.492;11.372;2023-06-10T00:33:49;53.70;;;13.03;;
18084;SDS011;9169;44.492;11.372;2023-06-10T00:36:18;56.57;;;14.20;;
18084;SDS011;9169;44.492;11.372;2023-06-10T00:38:47;58.20;;;15.20;;
18084;SDS011;9169;44.492;11.372;2023-06-10T00:41:15;59.20;;;14.67;;
18084;SDS011;9169;44.492;11.372;2023-06-10T00:43:44;63.30;;;15.63;;
18084;SDS011;9169;44.492;11.372;2023-06-10T00:46:15;57.67;;;14.27;;
18084;SDS011;9169;44.492;11.372;2023-06-10T00:48:45;58.00;;;16.07;;
18084;SDS011;9169;44.492;11.372;2023-06-10T00:51:14;60.47;;;16.87;;
18084;SDS011;9169;44.492;11.372;2023-06-10T00:53:44;62.27;;;14.70;;
18084;SDS011;9169;44.492;11.372;2023-06-10T00:56:14;64.47;;;17.10;;
18084;SDS011;9169;44.492;11.372;2023-06-10T00:58:43;61.03;;;16.27;;
18084;SDS011;9169;44.492;11.372;2023-06-10T01:01:11;62.17;;;16.50;;
18084;SDS011;9169;44.492;11.372;2023-06-10T01:03:41;67.40;;;20.70;;
18084;SDS011;9169;44.492;11.372;2023-06-10T01:06:14;72.80;;;21.70;;
18084;SDS011;9169;44.492;11.372;2023-06-10T01:08:50;69.27;;;22.50;;
18084;SDS011;9169;44.492;11.372;2023-06-10T01:11:25;71.37;;;24.57;;
18084;SDS011;9169;44.492;11.372;2023-06-10T01:13:57;88.00;;;29.40;;
18084;SDS011;9169;44.492;11.372;2023-06-10T01:16:27;69.13;;;21.97;;
18084;SDS011;9169;44.492;11.372;2023-06-10T01:18:57;77.27;;;26.70;;
18084;SDS011;9169;44.492;11.372;2023-06-10T01:21:28;75.73;;;24.40;;
18084;SDS011;9169;44.492;11.372;2023-06-10T01:23:59;91.90;;;28.37;;
18084;SDS011;9169;44.492;11.372;2023-06-10T01:26:29;74.40;;;24.57;;
18084;SDS011;9169;44.492;11.372;2023-06-10T01:29:00;66.60;;;19.77;;
18084;SDS011;9169;44.492;11.372;2023-06-10T01:31:36;72.40;;;19.97;;
18084;SDS011;9169;44.492;11.372;2023-06-10T01:34:10;67.67;;;16.70;;
18084;SDS011;9169;44.492;11.372;2023-06-10T01:36:43;60.87;;;14.00;;
18084;SDS011;9169;44.492;11.372;2023-06-10T01:39:14;61.83;;;13.07;;
18084;SDS011;9169;44.492;11.372;2023-06-10T01:41:44;56.80;;;11.70;;
18084;SDS011;9169;44.492;11.372;2023-06-10T01:44:13;59.43;;;12.83;;
18084;SDS011;9169;44.492;11.372;2023-06-10T01:46:45;60.53;;;12.37;;
18084;SDS011;9169;44.492;11.372;2023-06-10T01:49:14;59.10;;;12.53;;
18084;SDS011;9169;44.492;11.372;2023-06-10T01:51:44;57.40;;;11.47;;
18084;SDS011;9169;44.492;11.372;2023-06-10T01:54:12;60.00;;;13.97;;
18084;SDS011;9169;44.492;11.372;2023-06-10T01:56:41;58.30;;;12.63;;
18084;SDS011;9169;44.492;11.372;2023-06-10T01:59:10;58.27;;;14.20;;
18084;SDS011;9169;44.492;11.372;2023-06-10T02:01:39;60.73;;;12.20;;
18084;SDS011;9169;44.492;11.372;2023-06-10T02:04:09;57.00;;;11.20;;
18084;SDS011;9169;44.492;11.372;2023-06-10T02:06:38;54.17;;;10.80;;
18084;SDS011;9169;44.492;11.372;2023-06-10T02:09:08;55.57;;;10.57;;
18084;SDS011;9169;44.492;11.372;2023-06-10T02:11:37;56.47;;;11.97;;
18084;SDS011;9169;44.492;11.372;2023-06-10T02:14:05;61.50;;;10.83;;
18084;SDS011;9169;44.492;11.372;2023-06-10T02:16:34;55.00;;;9.60;;
18084;SDS011;9169;44.492;11.372;2023-06-10T02:19:04;53.60;;;8.83;;
18084;SDS011;9169;44.492;11.372;2023-06-10T02:21:34;51.20;;;8.00;;
18084;SDS011;9169;44.492;11.372;2023-06-10T02:24:02;49.77;;;7.20;;
18084;SDS011;9169;44.492;11.372;2023-06-10T02:26:35;50.90;;;7.47;;
18084;SDS011;9169;44.492;11.372;2023-06-10T02:29:04;52.13;;;8.20;;
18084;SDS011;9169;44.492;11.372;2023-06-10T02:31:33;53.67;;;8.13;;
18084;SDS011;9169;44.492;11.372;2023-06-10T02:34:03;52.97;;;7.17;;
18084;SDS011;9169;44.492;11.372;2023-06-10T02:36:32;54.13;;;8.23;;
18084;SDS011;9169;44.492;11.372;2023-06-10T02:39:02;56.70;;;8.57;;
18084;SDS011;9169;44.492;11.372;2023-06-10T02:41:32;53.60;;;8.57;;
18084;SDS011;9169;44.492;11.372;2023-06-10T02:44:02;54.87;;;9.47;;
18084;SDS011;9169;44.492;11.372;2023-06-10T02:46:32;57.20;;;11.07;;
18084;SDS011;9169;44.492;11.372;2023-06-10T02:49:01;56.10;;;10.90;;
18084;SDS011;9169;44.492;11.372;2023-06-10T02:51:30;56.70;;;10.30;;
18084;SDS011;9169;44.492;11.372;2023-06-10T02:54:02;57.23;;;10.73;;
18084;SDS011;9169;44.492;11.372;2023-06-10T02:56:31;58.77;;;11.53;;
18084;SDS011;9169;44.492;11.372;2023-06-10T02:59:04;59.80;;;12.37;;
18084;SDS011;9169;44.492;11.372;2023-06-10T03:01:34;60.37;;;13.90;;
18084;SDS011;9169;44.492;11.372;2023-06-10T03:04:07;57.77;;;11.50;;
18084;SDS011;9169;44.492;11.372;2023-06-10T03:06:36;63.30;;;14.73;;
18084;SDS011;9169;44.492;11.372;2023-06-10T03:09:16;62.93;;;14.80;;
18084;SDS011;9169;44.492;11.372;2023-06-10T03:11:47;65.10;;;16.03;;
18084;SDS011;9169;44.492;11.372;2023-06-10T03:14:17;62.67;;;16.00;;
18084;SDS011;9169;44.492;11.372;2023-06-10T03:16:46;63.50;;;16.70;;
18084;SDS011;9169;44.492;11.372;2023-06-10T03:19:15;63.10;;;16.67;;
18084;SDS011;9169;44.492;11.372;2023-06-10T03:21:49;64.97;;;17.60;;
18084;SDS011;9169;44.492;11.372;2023-06-10T03:24:18;66.90;;;18.90;;
18084;SDS011;9169;44.492;11.372;2023-06-10T03:26:46;65.60;;;17.70;;
18084;SDS011;9169;44.492;11.372;2023-06-10T03:29:17;66.80;;;17.90;;
18084;SDS011;9169;44.492;11.372;2023-06-10T03:31:46;68.23;;;19.60;;
18084;SDS011;9169;44.492;11.372;2023-06-10T03:34:15;68.57;;;18.87;;
18084;SDS011;9169;44.492;11.372;2023-06-10T03:36:44;67.07;;;19.70;;
18084;SDS011;9169;44.492;11.372;2023-06-10T03:39:13;67.93;;;19.90;;
18084;SDS011;9169;44.492;11.372;2023-06-10T03:41:41;65.67;;;18.63;;
18084;SDS011;9169;44.492;11.372;2023-06-10T03:44:10;66.80;;;18.90;;
18084;SDS011;9169;44.492;11.372;2023-06-10T03:46:41;66.63;;;19.50;;
18084;SDS011;9169;44.492;11.372;2023-06-10T03:49:09;67.70;;;19.47;;
18084;SDS011;9169;44.492;11.372;2023-06-10T03:51:39;70.87;;;20.77;;
18084;SDS011;9169;44.492;11.372;2023-06-10T03:54:09;68.13;;;21.27;;
18084;SDS011;9169;44.492;11.372;2023-06-10T03:56:38;70.50;;;22.07;;
18084;SDS011;9169;44.492;11.372;2023-06-10T03:59:07;73.33;;;22.20;;
18084;SDS011;9169;44.492;11.372;2023-06-10T04:01:35;67.20;;;20.30;;
18084;SDS011;9169;44.492;11.372;2023-06-10T04:04:09;66.43;;;19.30;;
18084;SDS011;9169;44.492;11.372;2023-06-10T04:06:38;65.97;;;18.87;;
18084;SDS011;9169;44.492;11.372;2023-06-10T04:09:07;71.10;;;20.73;;
18084;SDS011;9169;44.492;11.372;2023-06-10T04:11:37;65.40;;;19.40;;
18084;SDS011;9169;44.492;11.372;2023-06-10T04:14:06;69.00;;;21.10;;
18084;SDS011;9169;44.492;11.372;2023-06-10T04:16:35;70.60;;;21.67;;
18084;SDS011;9169;44.492;11.372;2023-06-10T04:19:05;68.90;;;21.90;;
18084;SDS011;9169;44.492;11.372;2023-06-10T04:21:34;68.80;;;20.63;;
18084;SDS011;9169;44.492;11.372;2023-06-10T04:24:04;70.80;;;22.40;;
18084;SDS011;9169;44.492;11.372;2023-06-10T04:26:35;73.93;;;23.20;;
18084;SDS011;9169;44.492;11.372;2023-06-10T04:29:04;72.20;;;23.30;;
18084;SDS011;9169;44.492;11.372;2023-06-10T04:31:33;75.60;;;24.47;;
18084;SDS011;9169;44.492;11.372;2023-06-10T04:34:02;69.20;;;22.80;;
18084;SDS011;9169;44.492;11.372;2023-06-10T04:36:31;72.70;;;24.60;;
18084;SDS011;9169;44.492;11.372;2023-06-10T04:39:01;70.53;;;21.43;;
18084;SDS011;9169;44.492;11.372;2023-06-10T04:41:31;74.30;;;22.37;;
18084;SDS011;9169;44.492;11.372;2023-06-10T04:44:00;72.40;;;24.73;;
18084;SDS011;9169;44.492;11.372;2023-06-10T04:46:28;73.57;;;23.33;;
18084;SDS011;9169;44.492;11.372;2023-06-10T04:48:58;68.50;;;22.40;;
18084;SDS011;9169;44.492;11.372;2023-06-10T04:51:27;70.93;;;22.93;;
18084;SDS011;9169;44.492;11.372;2023-06-10T04:53:56;71.03;;;22.53;;
18084;SDS011;9169;44.492;11.372;2023-06-10T04:56:26;69.17;;;21.50;;
18084;SDS011;9169;44.492;11.372;2023-06-10T04:58:55;71.57;;;21.73;;
18084;SDS011;9169;44.492;11.372;2023-06-10T05:01:24;72.67;;;23.30;;
18084;SDS011;9169;44.492;11.372;2023-06-10T05:03:52;71.03;;;23.00;;
18084;SDS011;9169;44.492;11.372;2023-06-10T05:06:21;72.07;;;23.37;;
18084;SDS011;9169;44.492;11.372;2023-06-10T05:08:49;68.53;;;21.63;;
18084;SDS011;9169;44.492;11.372;2023-06-10T05:11:18;72.30;;;22.63;;
18084;SDS011;9169;44.492;11.372;2023-06-10T05:13:48;68.27;;;20.40;;
18084;SDS011;9169;44.492;11.372;2023-06-10T05:16:16;73.97;;;21.30;;
18084;SDS011;9169;44.492;11.372;2023-06-10T05:18:45;77.70;;;23.60;;
18084;SDS011;9169;44.492;11.372;2023-06-10T05:21:13;67.47;;;19.40;;
18084;SDS011;9169;44.492;11.372;2023-06-10T05:23:42;71.33;;;20.83;;
18084;SDS011;9169;44.492;11.372;2023-06-10T05:26:10;68.70;;;19.10;;
18084;SDS011;9169;44.492;11.372;2023-06-10T05:28:39;70.00;;;18.50;;
18084;SDS011;9169;44.492;11.372;2023-06-10T05:31:09;66.80;;;20.30;;
18084;SDS011;9169;44.492;11.372;2023-06-10T05:33:38;64.60;;;18.53;;
18084;SDS011;9169;44.492;11.372;2023-06-10T05:36:07;69.40;;;18.83;;
18084;SDS011;9169;44.492;11.372;2023-06-10T05:38:35;67.73;;;20.00;;
18084;SDS011;9169;44.492;11.372;2023-06-10T05:41:04;67.23;;;19.17;;
18084;SDS011;9169;44.492;11.372;2023-06-10T05:43:32;64.17;;;17.23;;
18084;SDS011;9169;44.492;11.372;2023-06-10T05:46:01;72.40;;;16.97;;
18084;SDS011;9169;44.492;11.372;2023-06-10T05:48:31;62.37;;;17.83;;
18084;SDS011;9169;44.492;11.372;2023-06-10T05:50:59;63.47;;;18.23;;
18084;SDS011;9169;44.492;11.372;2023-06-10T05:53:28;64.57;;;17.13;;
18084;SDS011;9169;44.492;11.372;2023-06-10T05:55:57;64.70;;;16.57;;
18084;SDS011;9169;44.492;11.372;2023-06-10T05:58:25;63.80;;;17.07;;
18084;SDS011;9169;44.492;11.372;2023-06-10T06:00:54;64.43;;;16.63;;
18084;SDS011;9169;44.492;11.372;2023-06-10T06:03:22;63.17;;;16.30;;
18084;SDS011;9169;44.492;11.372;2023-06-10T06:05:52;64.13;;;15.97;;
18084;SDS011;9169;44.492;11.372;2023-06-10T06:08:20;68.27;;;21.77;;
18084;SDS011;9169;44.492;11.372;2023-06-10T06:10:49;70.07;;;22.20;;
18084;SDS011;9169;44.492;11.372;2023-06-10T06:13:18;65.00;;;15.70;;
18084;SDS011;9169;44.492;11.372;2023-06-10T06:15:46;62.77;;;15.97;;
18084;SDS011;9169;44.492;11.372;2023-06-10T06:18:14;65.30;;;15.70;;
18084;SDS011;9169;44.492;11.372;2023-06-10T06:20:45;67.13;;;18.30;;
18084;SDS011;9169;44.492;11.372;2023-06-10T06:23:14;61.50;;;15.13;;
18084;SDS011;9169;44.492;11.372;2023-06-10T06:25:43;61.70;;;15.37;;
18084;SDS011;9169;44.492;11.372;2023-06-10T06:28:11;59.57;;;13.87;;
18084;SDS011;9169;44.492;11.372;2023-06-10T06:30:40;60.90;;;14.40;;
18084;SDS011;9169;44.492;11.372;2023-06-10T06:33:09;59.60;;;13.60;;
18084;SDS011;9169;44.492;11.372;2023-06-10T06:35:37;89.20;;;18.47;;
18084;SDS011;9169;44.492;11.372;2023-06-10T06:38:07;70.63;;;18.23;;
18084;SDS011;9169;44.492;11.372;2023-06-10T06:40:37;80.67;;;17.80;;
18084;SDS011;9169;44.492;11.372;2023-06-10T06:43:05;56.90;;;13.60;;
18084;SDS011;9169;44.492;11.372;2023-06-10T06:45:54;71.67;;;13.50;;
18084;SDS011;9169;44.492;11.372;2023-06-10T06:48:23;60.30;;;15.30;;
18084;SDS011;9169;44.492;11.372;2023-06-10T06:50:52;53.20;;;11.30;;
18084;SDS011;9169;44.492;11.372;2023-06-10T06:53:22;51.97;;;12.17;;
18084;SDS011;9169;44.492;11.372;2023-06-10T06:55:53;65.17;;;15.10;;
18084;SDS011;9169;44.492;11.372;2023-06-10T06:58:21;56.80;;;15.80;;
18084;SDS011;9169;44.492;11.372;2023-06-10T07:00:50;54.17;;;13.03;;
18084;SDS011;9169;44.492;11.372;2023-06-10T07:03:20;53.23;;;13.67;;
18084;SDS011;9169;44.492;11.372;2023-06-10T07:05:48;48.03;;;14.90;;
18084;SDS011;9169;44.492;11.372;2023-06-10T07:08:17;45.97;;;15.10;;
18084;SDS011;9169;44.492;11.372;2023-06-10T07:10:45;44.67;;;14.30;;
18084;SDS011;9169;44.492;11.372;2023-06-10T07:13:17;42.77;;;14.17;;
18084;SDS011;9169;44.492;11.372;2023-06-10T07:15:45;43.70;;;14.40;;
18084;SDS011;9169;44.492;11.372;2023-06-10T07:18:14;43.53;;;15.33;;
18084;SDS011;9169;44.492;11.372;2023-06-10T07:20:43;40.50;;;12.93;;
18084;SDS011;9169;44.492;11.372;2023-06-10T07:23:14;38.93;;;12.60;;
18084;SDS011;9169;44.492;11.372;2023-06-10T07:25:42;37.80;;;12.33;;
18084;SDS011;9169;44.492;11.372;2023-06-10T07:28:11;40.23;;;13.77;;
18084;SDS011;9169;44.492;11.372;2023-06-10T07:30:41;36.20;;;12.77;;
18084;SDS011;9169;44.492;11.372;2023-06-10T07:33:09;34.27;;;12.23;;
18084;SDS011;9169;44.492;11.372;2023-06-10T07:35:38;38.23;;;12.07;;
18084;SDS011;9169;44.492;11.372;2023-06-10T07:38:06;49.40;;;16.40;;
18084;SDS011;9169;44.492;11.372;2023-06-10T07:40:35;38.53;;;13.07;;
18084;SDS011;9169;44.492;11.372;2023-06-10T07:43:03;31.87;;;10.93;;
18084;SDS011;9169;44.492;11.372;2023-06-10T07:45:32;32.40;;;10.77;;
18084;SDS011;9169;44.492;11.372;2023-06-10T07:48:02;26.80;;;8.93;;
18084;SDS011;9169;44.492;11.372;2023-06-10T07:50:31;38.60;;;9.77;;
18084;SDS011;9169;44.492;11.372;2023-06-10T07:52:59;20.63;;;8.40;;
18084;SDS011;9169;44.492;11.372;2023-06-10T07:55:28;36.97;;;7.73;;
18084;SDS011;9169;44.492;11.372;2023-06-10T07:57:57;30.23;;;10.20;;
18084;SDS011;9169;44.492;11.372;2023-06-10T08:00:25;38.53;;;18.23;;
18084;SDS011;9169;44.492;11.372;2023-06-10T08:02:54;159.07;;;16.60;;
18084;SDS011;9169;44.492;11.372;2023-06-10T08:05:24;40.73;;;9.83;;
18084;SDS011;9169;44.492;11.372;2023-06-10T08:07:53;28.87;;;10.20;;
18084;SDS011;9169;44.492;11.372;2023-06-10T08:10:21;21.77;;;7.57;;
18084;SDS011;9169;44.492;11.372;2023-06-10T08:12:50;21.60;;;7.77;;
18084;SDS011;9169;44.492;11.372;2023-06-10T08:15:19;31.00;;;14.33;;
18084;SDS011;9169;44.492;11.372;2023-06-10T08:17:48;24.80;;;9.67;;
18084;SDS011;9169;44.492;11.372;2023-06-10T08:20:17;24.57;;;7.83;;
18084;SDS011;9169;44.492;11.372;2023-06-10T08:22:47;29.03;;;9.23;;
18084;SDS011;9169;44.492;11.372;2023-06-10T08:25:15;30.90;;;10.57;;
18084;SDS011;9169;44.492;11.372;2023-06-10T08:27:44;29.57;;;9.23;;
18084;SDS011;9169;44.492;11.372;2023-06-10T08:30:13;36.00;;;13.17;;
18084;SDS011;9169;44.492;11.372;2023-06-10T08:32:42;34.47;;;13.23;;
18084;SDS011;9169;44.492;11.372;2023-06-10T08:35:10;39.27;;;14.40;;
18084;SDS011;9169;44.492;11.372;2023-06-10T08:37:39;32.50;;;13.23;;
18084;SDS011;9169;44.492;11.372;2023-06-10T08:40:10;36.73;;;15.93;;
18084;SDS011;9169;44.492;11.372;2023-06-10T08:42:40;37.30;;;14.67;;
18084;SDS011;9169;44.492;11.372;2023-06-10T08:45:16;35.20;;;15.07;;
18084;SDS011;9169;44.492;11.372;2023-06-10T08:47:45;37.80;;;15.90;;
18084;SDS011;9169;44.492;11.372;2023-06-10T08:50:17;35.00;;;16.90;;
18084;SDS011;9169;44.492;11.372;2023-06-10T08:52:48;38.10;;;18.70;;
18084;SDS011;9169;44.492;11.372;2023-06-10T08:55:23;33.33;;;17.07;;
18084;SDS011;9169;44.492;11.372;2023-06-10T08:57:57;36.90;;;17.30;;
18084;SDS011;9169;44.492;11.372;2023-06-10T09:00:26;32.80;;;18.40;;
18084;SDS011;9169;44.492;11.372;2023-06-10T09:02:56;34.53;;;18.67;;
18084;SDS011;9169;44.492;11.372;2023-06-10T09:05:28;34.20;;;19.83;;
18084;SDS011;9169;44.492;11.372;2023-06-10T09:07:57;30.67;;;18.77;;
18084;SDS011;9169;44.492;11.372;2023-06-10T09:10:28;34.50;;;19.00;;
18084;SDS011;9169;44.492;11.372;2023-06-10T09:12:57;35.17;;;18.90;;
18084;SDS011;9169;44.492;11.372;2023-06-10T09:15:26;30.57;;;18.17;;
18084;SDS011;9169;44.492;11.372;2023-06-10T09:17:55;32.30;;;18.77;;
18084;SDS011;9169;44.492;11.372;2023-06-10T09:20:23;34.60;;;18.17;;
18084;SDS011;9169;44.492;11.372;2023-06-10T09:22:52;31.20;;;18.80;;
18084;SDS011;9169;44.492;11.372;2023-06-10T09:25:21;31.73;;;16.77;;
18084;SDS011;9169;44.492;11.372;2023-06-10T09:28:04;32.20;;;18.87;;
18084;SDS011;9169;44.492;11.372;2023-06-10T09:30:40;31.83;;;18.73;;
18084;SDS011;9169;44.492;11.372;2023-06-10T09:33:10;26.10;;;16.40;;
18084;SDS011;9169;44.492;11.372;2023-06-10T09:35:44;32.10;;;16.67;;
18084;SDS011;9169;44.492;11.372;2023-06-10T09:38:14;28.90;;;16.37;;
18084;SDS011;9169;44.492;11.372;2023-06-10T09:40:51;33.03;;;17.30;;
18084;SDS011;9169;44.492;11.372;2023-06-10T09:43:21;26.10;;;16.97;;
18084;SDS011;9169;44.492;11.372;2023-06-10T09:45:49;23.40;;;14.60;;
18084;SDS011;9169;44.492;11.372;2023-06-10T09:48:20;26.43;;;16.37;;
18084;SDS011;9169;44.492;11.372;2023-06-10T09:50:50;30.03;;;16.83;;
18084;SDS011;9169;44.492;11.372;2023-06-10T09:53:19;23.30;;;15.17;;
18084;SDS011;9169;44.492;11.372;2023-06-10T09:55:49;23.00;;;14.50;;
18084;SDS011;9169;44.492;11.372;2023-06-10T09:58:28;19.47;;;13.47;;
18084;SDS011;9169;44.492;11.372;2023-06-10T10:01:05;19.03;;;12.87;;
18084;SDS011;9169;44.492;11.372;2023-06-10T10:03:42;17.13;;;12.63;;
18084;SDS011;9169;44.492;11.372;2023-06-10T10:06:13;19.40;;;13.07;;
18084;SDS011;9169;44.492;11.372;2023-06-10T10:08:44;18.17;;;11.87;;
18084;SDS011;9169;44.492;11.372;2023-06-10T10:11:13;25.10;;;10.63;;
18084;SDS011;9169;44.492;11.372;2023-06-10T10:13:46;19.97;;;10.77;;
18084;SDS011;9169;44.492;11.372;2023-06-10T10:16:17;20.50;;;9.93;;
18084;SDS011;9169;44.492;11.372;2023-06-10T10:18:49;16.53;;;11.00;;
18084;SDS011;9169;44.492;11.372;2023-06-10T10:21:22;16.37;;;11.37;;
18084;SDS011;9169;44.492;11.372;2023-06-10T10:23:57;16.30;;;9.93;;
18084;SDS011;9169;44.492;11.372;2023-06-10T10:26:31;15.83;;;11.03;;
18084;SDS011;9169;44.492;11.372;2023-06-10T10:29:07;17.40;;;12.33;;
18084;SDS011;9169;44.492;11.372;2023-06-10T10:31:40;13.20;;;10.17;;
18084;SDS011;9169;44.492;11.372;2023-06-10T10:34:12;15.47;;;9.87;;
18084;SDS011;9169;44.492;11.372;2023-06-10T10:36:44;15.57;;;9.33;;
18084;SDS011;9169;44.492;11.372;2023-06-10T10:39:14;13.70;;;9.80;;
18084;SDS011;9169;44.492;11.372;2023-06-10T10:41:43;13.40;;;10.90;;
18084;SDS011;9169;44.492;11.372;2023-06-10T10:44:14;22.13;;;10.57;;
18084;SDS011;9169;44.492;11.372;2023-06-10T10:46:43;11.70;;;9.43;;
18084;SDS011;9169;44.492;11.372;2023-06-10T10:49:16;12.43;;;10.10;;
18084;SDS011;9169;44.492;11.372;2023-06-10T10:51:55;12.40;;;9.60;;
18084;SDS011;9169;44.492;11.372;2023-06-10T10:54:28;10.17;;;8.67;;
18084;SDS011;9169;44.492;11.372;2023-06-10T10:57:10;18.30;;;9.97;;
18084;SDS011;9169;44.492;11.372;2023-06-10T10:59:45;12.70;;;9.33;;
18084;SDS011;9169;44.492;11.372;2023-06-10T11:02:33;9.73;;;8.57;;
18084;SDS011;9169;44.492;11.372;2023-06-10T11:05:10;15.97;;;12.33;;
18084;SDS011;9169;44.492;11.372;2023-06-10T11:07:41;12.67;;;10.00;;
18084;SDS011;9169;44.492;11.372;2023-06-10T11:10:28;14.50;;;7.93;;
18084;SDS011;9169;44.492;11.372;2023-06-10T11:12:58;14.77;;;11.20;;
18084;SDS011;9169;44.492;11.372;2023-06-10T11:15:28;10.93;;;9.70;;
18084;SDS011;9169;44.492;11.372;2023-06-10T11:18:07;15.73;;;8.97;;
18084;SDS011;9169;44.492;11.372;2023-06-10T11:20:56;11.63;;;9.53;;
18084;SDS011;9169;44.492;11.372;2023-06-10T11:23:38;10.10;;;7.40;;
18084;SDS011;9169;44.492;11.372;2023-06-10T11:26:15;27.80;;;7.50;;
18084;SDS011;9169;44.492;11.372;2023-06-10T11:29:06;10.23;;;7.07;;
18084;SDS011;9169;44.492;11.372;2023-06-10T11:31:41;9.20;;;6.43;;
18084;SDS011;9169;44.492;11.372;2023-06-10T11:34:15;9.33;;;6.77;;
18084;SDS011;9169;44.492;11.372;2023-06-10T11:36:50;14.40;;;6.67;;
18084;SDS011;9169;44.492;11.372;2023-06-10T11:39:19;8.17;;;5.40;;
18084;SDS011;9169;44.492;11.372;2023-06-10T11:41:51;9.30;;;5.83;;
18084;SDS011;9169;44.492;11.372;2023-06-10T11:44:19;9.30;;;6.43;;
18084;SDS011;9169;44.492;11.372;2023-06-10T11:46:50;8.30;;;5.80;;
18084;SDS011;9169;44.492;11.372;2023-06-10T11:49:20;10.23;;;6.20;;
18084;SDS011;9169;44.492;11.372;2023-06-10T11:51:48;8.17;;;5.70;;
18084;SDS011;9169;44.492;11.372;2023-06-10T11:54:18;12.53;;;8.23;;
18084;SDS011;9169;44.492;11.372;2023-06-10T11:56:48;9.20;;;7.43;;
18084;SDS011;9169;44.492;11.372;2023-06-10T11:59:17;9.60;;;6.17;;
18084;SDS011;9169;44.492;11.372;2023-06-10T12:01:46;12.43;;;6.90;;
18084;SDS011;9169;44.492;11.372;2023-06-10T12:04:15;11.00;;;8.13;;
18084;SDS011;9169;44.492;11.372;2023-06-10T12:06:46;12.40;;;8.07;;
18084;SDS011;9169;44.492;11.372;2023-06-10T12:09:17;11.57;;;7.80;;
18084;SDS011;9169;44.492;11.372;2023-06-10T12:11:51;12.07;;;9.20;;
18084;SDS011;9169;44.492;11.372;2023-06-10T12:17:23;8.73;;;7.07;;
18084;SDS011;9169;44.492;11.372;2023-06-10T12:20:06;11.13;;;7.80;;
18084;SDS011;9169;44.492;11.372;2023-06-10T12:22:36;13.23;;;7.17;;
18084;SDS011;9169;44.492;11.372;2023-06-10T12:25:06;11.30;;;7.80;;
18084;SDS011;9169;44.492;11.372;2023-06-10T12:27:36;11.40;;;8.40;;
18084;SDS011;9169;44.492;11.372;2023-06-10T12:30:10;11.60;;;7.20;;
18084;SDS011;9169;44.492;11.372;2023-06-10T12:32:46;11.63;;;7.70;;
18084;SDS011;9169;44.492;11.372;2023-06-10T12:35:18;10.43;;;5.20;;
18084;SDS011;9169;44.492;11.372;2023-06-10T12:37:54;12.20;;;4.33;;
18084;SDS011;9169;44.492;11.372;2023-06-10T12:40:27;18.10;;;4.93;;
18084;SDS011;9169;44.492;11.372;2023-06-10T12:42:58;7.53;;;4.60;;
18084;SDS011;9169;44.492;11.372;2023-06-10T12:45:26;7.57;;;4.70;;
18084;SDS011;9169;44.492;11.372;2023-06-10T12:48:05;8.30;;;4.63;;
18084;SDS011;9169;44.492;11.372;2023-06-10T12:50:37;9.97;;;4.93;;
18084;SDS011;9169;44.492;11.372;2023-06-10T12:53:08;7.93;;;4.37;;
18084;SDS011;9169;44.492;11.372;2023-06-10T12:55:38;8.00;;;4.90;;
18084;SDS011;9169;44.492;11.372;2023-06-10T12:58:07;9.23;;;4.67;;
18084;SDS011;9169;44.492;11.372;2023-06-10T13:00:36;9.77;;;4.70;;
18084;SDS011;9169;44.492;11.372;2023-06-10T13:03:04;9.77;;;5.17;;
18084;SDS011;9169;44.492;11.372;2023-06-10T13:05:34;10.90;;;5.63;;
18084;SDS011;9169;44.492;11.372;2023-06-10T13:08:06;9.87;;;5.83;;
18084;SDS011;9169;44.492;11.372;2023-06-10T13:10:36;9.97;;;5.30;;
18084;SDS011;9169;44.492;11.372;2023-06-10T13:13:06;9.03;;;5.57;;
18084;SDS011;9169;44.492;11.372;2023-06-10T13:15:36;9.70;;;5.10;;
18084;SDS011;9169;44.492;11.372;2023-06-10T13:18:08;10.00;;;5.80;;
18084;SDS011;9169;44.492;11.372;2023-06-10T13:20:37;7.37;;;4.50;;
18084;SDS011;9169;44.492;11.372;2023-06-10T13:23:07;8.47;;;3.90;;
18084;SDS011;9169;44.492;11.372;2023-06-10T13:25:36;9.20;;;4.73;;
18084;SDS011;9169;44.492;11.372;2023-06-10T13:28:04;11.37;;;5.00;;
18084;SDS011;9169;44.492;11.372;2023-06-10T13:30:33;11.30;;;5.73;;
18084;SDS011;9169;44.492;11.372;2023-06-10T13:33:02;12.60;;;6.80;;
18084;SDS011;9169;44.492;11.372;2023-06-10T13:35:30;9.50;;;5.57;;
18084;SDS011;9169;44.492;11.372;2023-06-10T13:37:59;8.97;;;5.73;;
18084;SDS011;9169;44.492;11.372;2023-06-10T13:40:29;8.33;;;5.03;;
18084;SDS011;9169;44.492;11.372;2023-06-10T13:43:00;10.60;;;5.10;;
18084;SDS011;9169;44.492;11.372;2023-06-10T13:45:29;11.90;;;5.50;;
18084;SDS011;9169;44.492;11.372;2023-06-10T13:47:58;8.40;;;5.73;;
18084;SDS011;9169;44.492;11.372;2023-06-10T13:50:27;10.70;;;5.90;;
18084;SDS011;9169;44.492;11.372;2023-06-10T13:52:56;10.23;;;5.80;;
18084;SDS011;9169;44.492;11.372;2023-06-10T13:55:25;12.03;;;5.80;;
18084;SDS011;9169;44.492;11.372;2023-06-10T13:57:55;11.87;;;6.10;;
18084;SDS011;9169;44.492;11.372;2023-06-10T14:00:24;10.10;;;6.30;;
18084;SDS011;9169;44.492;11.372;2023-06-10T14:02:54;10.30;;;6.47;;
18084;SDS011;9169;44.492;11.372;2023-06-10T14:05:23;12.57;;;6.20;;
18084;SDS011;9169;44.492;11.372;2023-06-10T14:07:52;13.03;;;6.40;;
18084;SDS011;9169;44.492;11.372;2023-06-10T14:10:20;15.20;;;6.33;;
18084;SDS011;9169;44.492;11.372;2023-06-10T14:12:49;12.93;;;6.47;;
18084;SDS011;9169;44.492;11.372;2023-06-10T14:15:19;11.90;;;6.30;;
18084;SDS011;9169;44.492;11.372;2023-06-10T14:17:48;12.60;;;6.93;;
18084;SDS011;9169;44.492;11.372;2023-06-10T14:20:17;11.73;;;6.20;;
18084;SDS011;9169;44.492;11.372;2023-06-10T14:22:45;14.17;;;6.87;;
18084;SDS011;9169;44.492;11.372;2023-06-10T14:25:14;15.87;;;8.43;;
18084;SDS011;9169;44.492;11.372;2023-06-10T14:27:43;14.17;;;7.53;;
18084;SDS011;9169;44.492;11.372;2023-06-10T14:30:13;13.97;;;7.80;;
18084;SDS011;9169;44.492;11.372;2023-06-10T14:32:44;15.97;;;6.53;;
18084;SDS011;9169;44.492;11.372;2023-06-10T14:35:13;19.37;;;9.07;;
18084;SDS011;9169;44.492;11.372;2023-06-10T14:37:42;15.93;;;9.00;;
18084;SDS011;9169;44.492;11.372;2023-06-10T14:40:11;17.90;;;7.30;;
18084;SDS011;9169;44.492;11.372;2023-06-10T14:42:39;19.23;;;7.40;;
18084;SDS011;9169;44.492;11.372;2023-06-10T14:45:08;16.63;;;6.90;;
18084;SDS011;9169;44.492;11.372;2023-06-10T14:47:41;17.67;;;7.00;;